This is the latest recevied weather packets stored in our database for station/object IZ3TCG-13. If no packets are shown the sender has not sent any weather packets the latest 10 day(s).
| Time | Temp. | Humidity | Pressure | Rain* | Wind** | Luminosity | Snow |
|---|---|---|---|---|---|---|---|
| 1778002804 | 14.44° C | 94% | 1011.2 hPa | 0 mm | - | - | - |
| 1778001604 | 14.44° C | 94% | 1011.3 hPa | 0 mm | - | - | - |
| 1778000884 | 15° C | 94% | 1011.3 hPa | 0 mm | - | - | - |
| 1778000404 | 15° C | 94% | 1011.1 hPa | 0 mm | - | - | - |
| 1777999924 | 15° C | 94% | 1011.2 hPa | 0 mm | - | - | - |
| 1777998004 | 15.56° C | 94% | 1011.5 hPa | 0 mm | - | - | - |
| 1777997524 | 15.56° C | 94% | 1011.3 hPa | 0 mm | - | - | - |
| 1777995364 | 16.11° C | 92% | 1011.3 hPa | 0 mm | - | - | - |
| 1777994164 | 16.67° C | 91% | 1011.6 hPa | 0 mm | - | - | - |
| 1777993204 | 16.67° C | 90% | 1011.4 hPa | 0 mm | - | - | - |
| 1777992244 | 16.67° C | 89% | 1011.4 hPa | 0 mm | - | - | - |
| 1777992003 | 16.67° C | 89% | 1011.5 hPa | 0 mm | - | - | - |
| 1777988163 | 16.11° C | 88% | 1011.8 hPa | 0 mm | - | - | - |
| 1777986724 | 16.67° C | 87% | 1012.2 hPa | 0 mm | - | - | - |
| 1777985524 | 16.11° C | 89% | 1012.2 hPa | 0 mm | - | - | - |
| 1777982164 | 16.67° C | 86% | 1012.6 hPa | 0 mm | - | - | - |
| 1777981204 | 16.67° C | 84% | 1012.6 hPa | 0 mm | - | - | - |
| 1777978213 | 16.67° C | 86% | 1012.5 hPa | 0.25 mm | - | - | - |
| 1777977844 | 16.67° C | 86% | 1012.6 hPa | 0.25 mm | - | - | - |
| 1777975683 | 16.67° C | 82% | 1012.9 hPa | 0.25 mm | - | - | - |
| 1777974484 | 16.11° C | 87% | 1010.5 hPa | 1.02 mm | - | - | - |
| 1777973284 | 15.56° C | 90% | 1010.1 hPa | 1.27 mm | - | - | - |
| 1777971844 | 16.67° C | 87% | 1010.2 hPa | 1.02 mm | - | - | - |
| 1777971363 | 16.11° C | 83% | 1010.3 hPa | 0.51 mm | - | - | - |
| 1777970404 | 16.67° C | 84% | 1010.1 hPa | 0 mm | - | - | - |
* Rain latest hour (hover to see other rain measurements)
** Current wind speed in m/s (hover to see current wind gust speed)